Time,TemperatureF,DewpointF,PressureIn,WindDirection,WindDirectionDegrees,WindSpeedMPH,WindSpeedGustMPH,Humidity,HourlyPrecipIn,Conditions,Clouds,dailyrainin,SolarRadiationWatts/m^2,SoftwareType,DateUTC
2013-11-16 00:01:00,39.0,19.0,-100.00,West,259,12.0,17.0,45,0.00,,,0.00,0.000000,,2013-11-16 07:01:00,
2013-11-16 00:11:00,39.0,19.0,-100.00,West,259,12.0,17.0,45,0.00,,,0.00,0.000000,,2013-11-16 07:11:00,
2013-11-16 00:22:00,39.0,19.0,-100.00,West,259,12.0,17.0,45,0.00,,,0.00,0.000000,,2013-11-16 07:22:00,
2013-11-16 00:30:00,39.0,19.0,-100.00,West,269,9.0,22.0,44,0.00,,,0.00,0.000000,,2013-11-16 07:30:00,
2013-11-16 00:52:00,39.0,19.0,-100.00,West,269,9.0,22.0,44,0.00,,,0.00,0.000000,,2013-11-16 07:52:00,
2013-11-16 01:01:00,39.0,19.0,-100.00,West,269,9.0,22.0,44,0.00,,,0.00,0.000000,,2013-11-16 08:01:00,
2013-11-16 01:11:00,39.0,19.0,-100.00,West,269,9.0,22.0,44,0.00,,,0.00,0.000000,,2013-11-16 08:11:00,
2013-11-16 01:22:00,39.0,19.0,-100.00,West,269,9.0,22.0,44,0.00,,,0.00,0.000000,,2013-11-16 08:22:00,
2013-11-16 01:30:00,39.0,19.0,-100.00,WSW,257,11.0,19.0,45,0.00,,,0.00,0.000000,,2013-11-16 08:30:00,
2013-11-16 01:52:00,39.0,19.0,-100.00,WSW,257,11.0,19.0,45,0.00,,,0.00,0.000000,,2013-11-16 08:52:00,
2013-11-16 02:02:00,39.0,19.0,-100.00,WSW,257,11.0,19.0,45,0.00,,,0.00,0.000000,,2013-11-16 09:02:00,
2013-11-16 02:11:00,39.0,19.0,-100.00,WSW,257,11.0,19.0,45,0.00,,,0.00,0.000000,,2013-11-16 09:11:00,
2013-11-16 02:22:00,39.0,19.0,-100.00,WSW,257,11.0,19.0,45,0.00,,,0.00,0.000000,,2013-11-16 09:22:00,
2013-11-16 02:30:00,38.0,20.0,-100.00,West,261,7.0,19.0,48,0.00,,,0.00,0.000000,,2013-11-16 09:30:00,
2013-11-16 02:53:00,38.0,20.0,-100.00,West,261,7.0,19.0,48,0.00,,,0.00,0.000000,,2013-11-16 09:53:00,
2013-11-16 03:03:00,38.0,20.0,-100.00,West,261,7.0,19.0,48,0.00,,,0.00,0.000000,,2013-11-16 10:03:00,
2013-11-16 03:12:00,38.0,20.0,-100.00,West,261,7.0,19.0,48,0.00,,,0.00,0.000000,,2013-11-16 10:12:00,
2013-11-16 03:23:00,38.0,20.0,-100.00,West,261,7.0,19.0,48,0.00,,,0.00,0.000000,,2013-11-16 10:23:00,
2013-11-16 03:30:00,37.0,20.0,-100.00,West,260,5.0,12.0,49,0.00,,,0.00,0.000000,,2013-11-16 10:30:00,
2013-11-16 03:52:00,37.0,20.0,-100.00,West,260,5.0,12.0,49,0.00,,,0.00,0.000000,,2013-11-16 10:52:00,
2013-11-16 04:02:00,37.0,20.0,-100.00,West,260,5.0,12.0,49,0.00,,,0.00,0.000000,,2013-11-16 11:02:00,
2013-11-16 04:12:00,37.0,20.0,-100.00,West,260,5.0,12.0,49,0.00,,,0.00,0.000000,,2013-11-16 11:12:00,
2013-11-16 04:22:00,37.0,20.0,-100.00,West,260,5.0,12.0,49,0.00,,,0.00,0.000000,,2013-11-16 11:22:00,
2013-11-16 04:30:00,37.0,23.0,-100.00,WNW,285,4.0,11.0,56,0.00,,,0.00,0.000000,,2013-11-16 11:30:00,
2013-11-16 04:53:00,37.0,23.0,-100.00,WNW,285,4.0,11.0,56,0.00,,,0.00,0.000000,,2013-11-16 11:53:00,
2013-11-16 05:02:00,37.0,23.0,-100.00,WNW,285,4.0,11.0,56,0.00,,,0.00,0.000000,,2013-11-16 12:02:00,
2013-11-16 05:12:00,37.0,23.0,-100.00,WNW,285,4.0,11.0,56,0.00,,,0.00,0.000000,,2013-11-16 12:12:00,
2013-11-16 05:21:00,37.0,23.0,-100.00,WNW,285,4.0,11.0,56,0.00,,,0.00,0.000000,,2013-11-16 12:21:00,
2013-11-16 05:30:00,38.0,25.0,-100.00,WSW,240,5.0,11.0,58,0.00,,,0.00,0.000000,,2013-11-16 12:30:00,
2013-11-16 05:52:00,38.0,25.0,-100.00,WSW,240,5.0,11.0,58,0.00,,,0.00,0.000000,,2013-11-16 12:52:00,
2013-11-16 06:01:00,38.0,25.0,-100.00,WSW,240,5.0,11.0,58,0.00,,,0.00,0.000000,,2013-11-16 13:01:00,
2013-11-16 06:11:00,38.0,25.0,-100.00,WSW,240,5.0,11.0,58,0.00,,,0.00,0.000000,,2013-11-16 13:11:00,
2013-11-16 06:21:00,38.0,25.0,-100.00,WSW,240,5.0,11.0,58,0.00,,,0.00,0.000000,,2013-11-16 13:21:00,
2013-11-16 06:30:00,37.0,24.0,-100.00,West,271,4.0,9.0,60,0.00,,,0.00,0.000000,,2013-11-16 13:30:00,
2013-11-16 06:52:00,37.0,24.0,-100.00,West,271,4.0,9.0,60,0.00,,,0.00,0.000000,,2013-11-16 13:52:00,
2013-11-16 07:02:00,37.0,24.0,-100.00,West,271,4.0,9.0,60,0.00,,,0.00,0.000000,,2013-11-16 14:02:00,
2013-11-16 07:11:00,37.0,24.0,-100.00,West,271,4.0,9.0,60,0.00,,,0.00,0.000000,,2013-11-16 14:11:00,
2013-11-16 07:22:00,37.0,24.0,-100.00,West,271,4.0,9.0,60,0.00,,,0.00,0.000000,,2013-11-16 14:22:00,
2013-11-16 07:30:00,38.0,24.0,-100.00,West,266,7.0,11.0,56,0.00,,,0.00,0.000000,,2013-11-16 14:30:00,
2013-11-16 07:52:00,38.0,24.0,-100.00,West,266,7.0,11.0,56,0.00,,,0.00,0.000000,,2013-11-16 14:52:00,
2013-11-16 08:02:00,38.0,24.0,-100.00,West,266,7.0,11.0,56,0.00,,,0.00,0.000000,,2013-11-16 15:02:00,
2013-11-16 08:11:00,38.0,24.0,-100.00,West,266,7.0,11.0,56,0.00,,,0.00,0.000000,,2013-11-16 15:11:00,
2013-11-16 08:21:00,38.0,24.0,-100.00,West,266,7.0,11.0,56,0.00,,,0.00,0.000000,,2013-11-16 15:21:00,
2013-11-16 08:30:00,38.0,23.0,-100.00,West,263,6.0,19.0,54,0.00,,,0.00,12.000000,,2013-11-16 15:30:00,
2013-11-16 08:53:00,38.0,23.0,-100.00,West,263,6.0,19.0,54,0.00,,,0.00,12.000000,,2013-11-16 15:53:00,
2013-11-16 09:03:00,38.0,23.0,-100.00,West,263,6.0,19.0,54,0.00,,,0.00,12.000000,,2013-11-16 16:03:00,
2013-11-16 09:13:00,38.0,23.0,-100.00,West,263,6.0,19.0,54,0.00,,,0.00,12.000000,,2013-11-16 16:13:00,
2013-11-16 09:23:00,38.0,23.0,-100.00,West,263,6.0,19.0,54,0.00,,,0.00,12.000000,,2013-11-16 16:23:00,
2013-11-16 09:30:00,39.0,24.0,-100.00,WSW,243,7.0,14.0,55,0.00,,,0.00,48.000000,,2013-11-16 16:30:00,
2013-11-16 09:53:00,39.0,24.0,-100.00,WSW,243,7.0,14.0,55,0.00,,,0.00,48.000000,,2013-11-16 16:53:00,
2013-11-16 10:02:00,39.0,24.0,-100.00,WSW,243,7.0,14.0,55,0.00,,,0.00,48.000000,,2013-11-16 17:02:00,
2013-11-16 10:12:00,39.0,24.0,-100.00,WSW,243,7.0,14.0,55,0.00,,,0.00,48.000000,,2013-11-16 17:12:00,
2013-11-16 10:22:00,39.0,24.0,-100.00,WSW,243,7.0,14.0,55,0.00,,,0.00,48.000000,,2013-11-16 17:22:00,
2013-11-16 10:30:00,41.0,26.0,-100.00,West,260,7.0,14.0,54,0.00,,,0.00,158.000000,,2013-11-16 17:30:00,
2013-11-16 10:52:00,41.0,26.0,-100.00,West,260,7.0,14.0,54,0.00,,,0.00,158.000000,,2013-11-16 17:52:00,
2013-11-16 11:02:00,41.0,26.0,-100.00,West,260,7.0,14.0,54,0.00,,,0.00,158.000000,,2013-11-16 18:02:00,
2013-11-16 11:12:00,41.0,26.0,-100.00,West,260,7.0,14.0,54,0.00,,,0.00,158.000000,,2013-11-16 18:12:00,
2013-11-16 11:23:00,41.0,26.0,-100.00,West,260,7.0,14.0,54,0.00,,,0.00,158.000000,,2013-11-16 18:23:00,
2013-11-16 11:30:00,45.0,25.0,-100.00,WSW,246,9.0,16.0,46,0.00,,,0.00,425.000000,,2013-11-16 18:30:00,
2013-11-16 11:52:00,45.0,25.0,-100.00,WSW,246,9.0,16.0,46,0.00,,,0.00,425.000000,,2013-11-16 18:52:00,
2013-11-16 12:02:00,45.0,25.0,-100.00,WSW,246,9.0,16.0,46,0.00,,,0.00,425.000000,,2013-11-16 19:02:00,
2013-11-16 12:12:00,45.0,25.0,-100.00,WSW,246,9.0,16.0,46,0.00,,,0.00,425.000000,,2013-11-16 19:12:00,
2013-11-16 12:22:00,45.0,25.0,-100.00,WSW,246,9.0,16.0,46,0.00,,,0.00,425.000000,,2013-11-16 19:22:00,
2013-11-16 12:30:00,42.0,24.0,-100.00,SSW,213,8.0,17.0,49,0.00,,,-99.99,216.000000,,2013-11-16 19:30:00,
2013-11-16 12:53:00,42.0,24.0,-100.00,SSW,213,8.0,17.0,49,0.00,,,-99.99,216.000000,,2013-11-16 19:53:00,
2013-11-16 13:01:00,42.0,24.0,-100.00,SSW,213,8.0,17.0,49,0.00,,,-99.99,216.000000,,2013-11-16 20:01:00,
2013-11-16 13:12:00,42.0,24.0,-100.00,SSW,213,8.0,17.0,49,0.00,,,-99.99,216.000000,,2013-11-16 20:12:00,
2013-11-16 13:22:00,42.0,24.0,-100.00,SSW,213,8.0,17.0,49,0.00,,,-99.99,216.000000,,2013-11-16 20:22:00,
2013-11-16 13:30:00,40.0,24.0,-100.00,SW,228,8.0,15.0,53,0.00,,,0.00,139.000000,,2013-11-16 20:30:00,
2013-11-16 14:11:00,40.0,24.0,-100.00,SW,228,8.0,15.0,53,0.00,,,0.00,139.000000,,2013-11-16 21:11:00,
2013-11-16 14:21:00,40.0,24.0,-100.00,SW,228,8.0,15.0,53,0.00,,,0.00,139.000000,,2013-11-16 21:21:00,
2013-11-16 14:30:00,42.0,24.0,-100.00,WSW,245,8.0,14.0,48,0.00,,,0.00,144.000000,,2013-11-16 21:30:00,
2013-11-16 15:13:00,42.0,24.0,-100.00,WSW,245,8.0,14.0,48,0.00,,,0.00,144.000000,,2013-11-16 22:13:00,
2013-11-16 15:24:00,42.0,24.0,-100.00,WSW,245,8.0,14.0,48,0.00,,,0.00,144.000000,,2013-11-16 22:24:00,
2013-11-16 15:30:00,41.0,20.0,-100.00,WSW,257,11.0,25.0,43,0.00,,,0.00,105.000000,,2013-11-16 22:30:00,
2013-11-16 15:53:00,41.0,20.0,-100.00,WSW,257,11.0,25.0,43,0.00,,,0.00,105.000000,,2013-11-16 22:53:00,
2013-11-16 16:03:00,41.0,20.0,-100.00,WSW,257,11.0,25.0,43,0.00,,,0.00,105.000000,,2013-11-16 23:03:00,
2013-11-16 16:13:00,41.0,20.0,-100.00,WSW,257,11.0,25.0,43,0.00,,,0.00,105.000000,,2013-11-16 23:13:00,
2013-11-16 16:22:00,41.0,20.0,-100.00,WSW,257,11.0,25.0,43,0.00,,,0.00,105.000000,,2013-11-16 23:22:00,
2013-11-16 16:30:00,29.0,21.0,-100.00,NW,309,12.0,19.0,73,0.00,,,0.00,27.000000,,2013-11-16 23:30:00,
2013-11-16 16:53:00,29.0,21.0,-100.00,NW,309,12.0,19.0,73,0.00,,,0.00,27.000000,,2013-11-16 23:53:00,
2013-11-16 17:02:00,29.0,21.0,-100.00,NW,309,12.0,19.0,73,0.00,,,0.00,27.000000,,2013-11-17 00:02:00,
2013-11-16 17:12:00,29.0,21.0,-100.00,NW,309,12.0,19.0,73,0.00,,,0.00,27.000000,,2013-11-17 00:12:00,
2013-11-16 17:22:00,29.0,21.0,-100.00,NW,309,12.0,19.0,73,0.00,,,0.00,27.000000,,2013-11-17 00:22:00,
2013-11-16 17:30:00,28.0,21.0,-100.00,NNE,33,3.0,15.0,75,0.00,,,0.00,4.000000,,2013-11-17 00:30:00,
2013-11-16 17:52:00,28.0,21.0,-100.00,NNE,33,3.0,15.0,75,0.00,,,0.00,4.000000,,2013-11-17 00:52:00,
2013-11-16 18:01:00,28.0,21.0,-100.00,NNE,33,3.0,15.0,75,0.00,,,0.00,4.000000,,2013-11-17 01:01:00,
2013-11-16 18:12:00,28.0,21.0,-100.00,NNE,33,3.0,15.0,75,0.00,,,0.00,4.000000,,2013-11-17 01:12:00,
2013-11-16 18:22:00,28.0,21.0,-100.00,NNE,33,3.0,15.0,75,0.00,,,0.00,4.000000,,2013-11-17 01:22:00,
2013-11-16 18:30:00,25.0,19.0,-100.00,ENE,63,8.0,13.0,78,0.00,,,0.00,0.000000,,2013-11-17 01:30:00,
2013-11-16 18:52:00,25.0,19.0,-100.00,ENE,63,8.0,13.0,78,0.00,,,0.00,0.000000,,2013-11-17 01:52:00,
2013-11-16 19:01:00,25.0,19.0,-100.00,ENE,63,8.0,13.0,78,0.00,,,0.00,0.000000,,2013-11-17 02:01:00,
2013-11-16 19:12:00,25.0,19.0,-100.00,ENE,63,8.0,13.0,78,0.00,,,0.00,0.000000,,2013-11-17 02:12:00,
2013-11-16 19:21:00,25.0,19.0,-100.00,ENE,63,8.0,13.0,78,0.00,,,0.00,0.000000,,2013-11-17 02:21:00,
2013-11-16 19:30:00,24.0,17.0,-100.00,ENE,64,6.0,12.0,75,0.00,,,0.00,0.000000,,2013-11-17 02:30:00,
2013-11-16 20:12:00,24.0,17.0,-100.00,ENE,64,6.0,12.0,75,0.00,,,0.00,0.000000,,2013-11-17 03:12:00,
2013-11-16 20:22:00,24.0,17.0,-100.00,ENE,64,6.0,12.0,75,0.00,,,0.00,0.000000,,2013-11-17 03:22:00,
2013-11-16 20:30:00,24.0,17.0,-100.00,ENE,62,5.0,10.0,75,0.00,,,0.00,0.000000,,2013-11-17 03:30:00,
2013-11-16 21:02:00,-999.0,-99.9,-100.00,ENE,62,5.0,10.0,-999,-99.99,,,-99.99,0.000000,,2013-11-17 04:02:00,
2013-11-16 21:14:00,24.0,17.0,-100.00,ENE,62,5.0,10.0,75,0.00,,,0.00,0.000000,,2013-11-17 04:14:00,
2013-11-16 21:24:00,24.0,17.0,-100.00,ENE,62,5.0,10.0,75,0.00,,,0.00,0.000000,,2013-11-17 04:24:00,
2013-11-16 21:30:00,24.0,18.0,-100.00,ENE,72,5.0,7.0,76,0.00,,,0.00,0.000000,,2013-11-17 04:30:00,
2013-11-16 21:53:00,24.0,18.0,-100.00,ENE,72,5.0,7.0,76,0.00,,,0.00,0.000000,,2013-11-17 04:53:00,
2013-11-16 22:03:00,24.0,18.0,-100.00,ENE,72,5.0,7.0,76,0.00,,,0.00,0.000000,,2013-11-17 05:03:00,
2013-11-16 22:13:00,24.0,18.0,-100.00,ENE,72,5.0,7.0,76,0.00,,,0.00,0.000000,,2013-11-17 05:13:00,
2013-11-16 22:23:00,24.0,18.0,-100.00,ENE,72,5.0,7.0,76,0.00,,,0.00,0.000000,,2013-11-17 05:23:00,
2013-11-16 22:30:00,23.0,16.0,-100.00,ENE,71,4.0,7.0,75,0.00,,,0.00,0.000000,,2013-11-17 05:30:00,
2013-11-16 22:53:00,23.0,16.0,-100.00,ENE,71,4.0,7.0,75,0.00,,,0.00,0.000000,,2013-11-17 05:53:00,
2013-11-16 23:02:00,23.0,16.0,-100.00,ENE,71,4.0,7.0,75,0.00,,,0.00,0.000000,,2013-11-17 06:02:00,
2013-11-16 23:13:00,23.0,16.0,-100.00,ENE,71,4.0,7.0,75,0.00,,,0.00,0.000000,,2013-11-17 06:13:00,
2013-11-16 23:22:00,23.0,16.0,-100.00,ENE,71,4.0,7.0,75,0.00,,,0.00,0.000000,,2013-11-17 06:22:00,
2013-11-16 23:30:00,23.0,17.0,-100.00,ESE,115,4.0,6.0,76,0.00,,,0.00,0.000000,,2013-11-17 06:30:00,
2013-11-16 23:52:00,23.0,17.0,-100.00,ESE,115,4.0,6.0,76,0.00,,,0.00,0.000000,,2013-11-17 06:52:00,